Grand Mound, Iowa
Current Conditions -  °F | °C
As of 8:59 AM on Saturday 25 Oct 2014 (Local Time) from KDVN Reporting Station
Haze Haze  
Wind Chill: 52°   Ceiling: Unl
Heat Index: 52°   Visibility: 4mi
Dew Point: 50°   Wind: 7mph
Humidity: 93%   Direction: 320°NW
Pressure: 30.01"   Gusts: NA
Location:  41.82°N, 90.65°W
Report Text: KDVN 251359Z AUTO 32006KT 4SM BR FEW002 11/10 A3001 RMK AO2 T01110100 TSNO
Loading
Personal Weather Stations






























Interactive Weather Map
Tropical Storm Tracking
New forecast layout! Learn more

10-Day Weather Forecast

Advertisements
Track Severe Weather on mobile